^^
NorthLandsweather Station Historical Data
 
Daily Summary for August 20, 2017 Units:  English    Metric   Both
« Previous Day
Next Day »
Daily Weekly Monthly Yearly Custom
  Current: High: Low: Average:
Temperature: 52.5 °F 56.9 °F 52.0 °F 53.6 °F
Dew Point: 51.7 °F 55.5 °F 51.1 °F 52.6 °F
Humidity: 97 % 97 % 95 % 96 %
Wind Speed: 0.0 mph 0.0 mph 0.0 mph 0 mph
Wind Gust: 0.0 mph 0.0 mph - -
Wind:Calm - - North
Pressure: 29.92 in 29.92 in 29.90 in -
Precipitation: 0.00 in      
Historical Graphs
 
 
Tabular Data for August 20, 2017
Time Temperature Dew Point Pressure Wind Wind Speed Wind Gust Humidity Rainfall Rate (Hourly) solar Conditions
00:00 56.9 °F 55.5 °F 29.91 in Calm     95 % 0.00 in 0.0 W/m2 CLR
00:05 56.7 °F 55.3 °F 29.92 in Calm     95 % 0.00 in 0.0 W/m2 CLR
00:10 56.6 °F 55.2 °F 29.91 in Calm     95 % 0.00 in 0.0 W/m2 CLR
00:15 56.4 °F 55.3 °F 29.92 in Calm     96 % 0.00 in 0.0 W/m2 CLR
00:20 56.3 °F 54.9 °F 29.92 in Calm     95 % 0.00 in 0.0 W/m2 CLR
00:25 56.2 °F 55.1 °F 29.92 in Calm     96 % 0.00 in 0.0 W/m2 CLR
00:30 56.0 °F 54.9 °F 29.92 in Calm     96 % 0.00 in 0.0 W/m2 CLR
00:35 55.9 °F 54.8 °F 29.92 in Calm     96 % 0.00 in 0.0 W/m2 CLR
00:40 55.8 °F 54.7 °F 29.92 in Calm     96 % 0.00 in 0.0 W/m2 CLR
00:45 55.7 °F 54.6 °F 29.92 in Calm     96 % 0.00 in 0.0 W/m2 CLR
00:50 55.6 °F 54.5 °F 29.92 in Calm     96 % 0.00 in 0.0 W/m2 CLR
00:55 55.4 °F 54.3 °F 29.92 in Calm     96 % 0.00 in 0.0 W/m2 CLR
01:00 55.3 °F 54.2 °F 29.92 in Calm     96 % 0.00 in 0.0 W/m2 CLR
01:05 55.3 °F 54.2 °F 29.92 in Calm     96 % 0.00 in 0.0 W/m2 CLR
01:10 55.2 °F 54.1 °F 29.92 in Calm     96 % 0.00 in 0.0 W/m2 CLR
01:15 55.1 °F 54.0 °F 29.92 in Calm     96 % 0.00 in 0.0 W/m2 CLR
01:20 55.0 °F 53.9 °F 29.92 in Calm     96 % 0.00 in 0.0 W/m2 CLR
01:25 54.9 °F 53.8 °F 29.92 in Calm     96 % 0.00 in 0.0 W/m2 CLR
01:30 54.9 °F 53.8 °F 29.92 in Calm     96 % 0.00 in 0.0 W/m2 CLR
01:35 54.8 °F 53.7 °F 29.91 in Calm     96 % 0.00 in 0.0 W/m2 CLR
01:40 54.6 °F 53.5 °F 29.92 in Calm     96 % 0.00 in 0.0 W/m2 CLR
01:45 54.5 °F 53.4 °F 29.91 in Calm     96 % 0.00 in 0.0 W/m2 CLR
01:50 54.4 °F 53.3 °F 29.91 in Calm     96 % 0.00 in 0.0 W/m2 CLR
01:55 54.3 °F 53.2 °F 29.91 in Calm     96 % 0.00 in 0.0 W/m2 CLR
02:00 54.2 °F 53.1 °F 29.91 in Calm     96 % 0.00 in 0.0 W/m2 CLR
02:05 54.2 °F 53.1 °F 29.91 in Calm     96 % 0.00 in 0.0 W/m2 CLR
02:10 54.0 °F 52.9 °F 29.91 in Calm     96 % 0.00 in 0.0 W/m2 CLR
02:15 53.9 °F 52.8 °F 29.90 in Calm     96 % 0.00 in 0.0 W/m2 CLR
02:20 53.9 °F 52.8 °F 29.90 in Calm     96 % 0.00 in 0.0 W/m2 CLR
02:25 53.8 °F 52.7 °F 29.90 in Calm     96 % 0.00 in 0.0 W/m2 CLR
02:30 53.7 °F 52.6 °F 29.90 in Calm     96 % 0.00 in 0.0 W/m2 CLR
02:35 53.7 °F 52.6 °F 29.90 in Calm     96 % 0.00 in 0.0 W/m2 CLR
02:40 53.6 °F 52.5 °F 29.90 in Calm     96 % 0.00 in 0.0 W/m2 CLR
02:45 53.5 °F 52.4 °F 29.90 in Calm     96 % 0.00 in 0.0 W/m2 CLR
02:50 53.4 °F 52.3 °F 29.90 in Calm     96 % 0.00 in 0.0 W/m2 CLR
02:55 53.3 °F 52.2 °F 29.90 in Calm     96 % 0.00 in 0.0 W/m2 CLR
03:00 53.3 °F 52.2 °F 29.90 in Calm     96 % 0.00 in 0.0 W/m2 CLR
03:05 53.2 °F 52.1 °F 29.90 in Calm     96 % 0.00 in 0.0 W/m2 CLR
03:10 53.1 °F 52.0 °F 29.90 in Calm     96 % 0.00 in 0.0 W/m2 CLR
03:15 53.1 °F 52.0 °F 29.90 in Calm     96 % 0.00 in 0.0 W/m2 CLR
03:20 53.0 °F 52.2 °F 29.90 in Calm     97 % 0.00 in 0.0 W/m2 CLR
03:25 53.0 °F 52.2 °F 29.90 in Calm     97 % 0.00 in 0.0 W/m2 CLR
03:30 53.0 °F 51.9 °F 29.90 in Calm     96 % 0.00 in 0.0 W/m2 CLR
03:35 52.8 °F 51.7 °F 29.90 in Calm     96 % 0.00 in 0.0 W/m2 CLR
03:40 52.7 °F 51.6 °F 29.90 in Calm     96 % 0.00 in 0.0 W/m2 CLR
03:45 52.7 °F 51.6 °F 29.90 in Calm     96 % 0.00 in 0.0 W/m2 CLR
03:50 52.6 °F 51.5 °F 29.90 in Calm     96 % 0.00 in 0.0 W/m2 CLR
03:53 52.6 °F 51.8 °F 29.90 in Calm     97 % 0.00 in 0.0 W/m2 CLR
03:58 52.6 °F 51.8 °F 29.90 in Calm     97 % 0.00 in 0.0 W/m2 CLR
04:03 52.5 °F 51.7 °F 29.91 in Calm     97 % 0.00 in 0.0 W/m2 CLR
04:08 52.4 °F 51.6 °F 29.91 in Calm     97 % 0.00 in 0.0 W/m2 CLR
04:13 52.3 °F 51.5 °F 29.91 in Calm     97 % 0.00 in 0.0 W/m2 CLR
04:18 52.3 °F 51.2 °F 29.91 in Calm     96 % 0.00 in 0.0 W/m2 CLR
04:23 52.2 °F 51.1 °F 29.92 in Calm     96 % 0.00 in 0.0 W/m2 CLR
04:28 52.2 °F 51.1 °F 29.91 in Calm     96 % 0.00 in 0.0 W/m2 CLR
04:33 52.2 °F 51.4 °F 29.91 in Calm     97 % 0.00 in 0.0 W/m2 CLR
04:38 52.2 °F 51.4 °F 29.91 in Calm     97 % 0.00 in 0.0 W/m2 CLR
04:43 52.2 °F 51.4 °F 29.91 in Calm     97 % 0.00 in 0.0 W/m2 CLR
04:48 52.2 °F 51.4 °F 29.91 in Calm     97 % 0.00 in 0.0 W/m2 CLR
04:53 52.2 °F 51.4 °F 29.91 in Calm     97 % 0.00 in 0.0 W/m2 CLR
04:58 52.2 °F 51.4 °F 29.91 in Calm     97 % 0.00 in 0.0 W/m2 CLR
05:03 52.2 °F 51.4 °F 29.91 in Calm     97 % 0.00 in 0.0 W/m2 CLR
05:08 52.1 °F 51.3 °F 29.91 in Calm     97 % 0.00 in 0.0 W/m2 CLR
05:13 52.1 °F 51.3 °F 29.92 in Calm     97 % 0.00 in 0.0 W/m2 CLR
05:18 52.0 °F 51.2 °F 29.92 in Calm     97 % 0.00 in 0.0 W/m2 CLR
05:23 52.0 °F 51.2 °F 29.91 in Calm     97 % 0.00 in 0.0 W/m2 CLR
05:28 52.0 °F 51.2 °F 29.91 in Calm     97 % 0.00 in 0.0 W/m2 CLR
05:33 52.0 °F 51.2 °F 29.91 in Calm     97 % 0.00 in 0.0 W/m2 CLR
05:38 52.0 °F 51.2 °F 29.91 in Calm     97 % 0.00 in 0.0 W/m2 CLR
05:43 52.1 °F 51.3 °F 29.92 in Calm     97 % 0.00 in 0.0 W/m2 CLR
05:48 52.1 °F 51.3 °F 29.91 in Calm     97 % 0.00 in 0.0 W/m2 CLR
05:53 52.1 °F 51.3 °F 29.91 in Calm     97 % 0.00 in 0.0 W/m2 CLR
05:58 52.2 °F 51.4 °F 29.91 in Calm     97 % 0.00 in 0.0 W/m2 CLR
06:03 52.2 °F 51.4 °F 29.91 in Calm     97 % 0.00 in 0.0 W/m2 CLR
06:08 52.3 °F 51.5 °F 29.92 in Calm     97 % 0.00 in 135.0 W/m2 CLR
06:13 52.3 °F 51.5 °F 29.92 in Calm     97 % 0.00 in 153.2 W/m2 CLR
06:18 52.3 °F 51.5 °F 29.92 in Calm     97 % 0.00 in 170.4 W/m2 CLR
06:23 52.4 °F 51.6 °F 29.92 in Calm     97 % 0.00 in 178.5 W/m2 CLR
06:28 52.5 °F 51.7 °F 29.92 in Calm     97 % 0.00 in 195.6 W/m2 CLR
Winter, Wisconsin USA
Compliments of Weather Underground - 1.25 mb